Terminal Aerodrome Forecast
Issued by NWS

Home | Current Version | Previous Version | Text Only | Print | Product List | Glossary On
Versions: 1 2 3 4 5 6 7 8 9 10 11 12 13 14 15 16 17 18 19 20 21 22 23 24 25 26 27 28 29 30 31 32 33 34 35 36 37 38 39 40 41 42 43 44 45
000
FTUS46 KOTX 261722
TAFPUW
TAF
KPUW 261722Z 2618/2718 27003KT P6SM SCT008
     FM262100 28005KT P6SM FEW015
     FM270500 11004KT P6SM BKN150
     FM271000 14007KT 3SM -SHSN BKN015 OVC040
     FM271600 15007KT 1SM -SN BR OVC015=

USA.gov is the U.S. government's official web portal to all federal, state and local government web resources and services.